sensor_id;sensor_type;location;lat;lon;timestamp;pressure;altitude;pressure_sealevel;temperature;humidity
61963;BME280;47927;42.646;23.096;2022-09-09T00:02:08;92451.16;;;18.17;62.45
61963;BME280;47927;42.646;23.096;2022-09-09T00:04:32;92444.50;;;18.09;62.55
61963;BME280;47927;42.646;23.096;2022-09-09T00:07:12;92448.28;;;18.08;61.94
61963;BME280;47927;42.646;23.096;2022-09-09T00:12:15;92442.53;;;17.89;63.23
61963;BME280;47927;42.646;23.096;2022-09-09T00:17:50;92442.38;;;18.00;63.76
61963;BME280;47927;42.646;23.096;2022-09-09T00:20:39;92435.22;;;18.01;64.08
61963;BME280;47927;42.646;23.096;2022-09-09T00:28:30;92418.44;;;18.38;62.67
61963;BME280;47927;42.646;23.096;2022-09-09T00:31:15;92419.00;;;18.49;61.48
61963;BME280;47927;42.646;23.096;2022-09-09T00:33:44;92414.94;;;18.44;61.50
61963;BME280;47927;42.646;23.096;2022-09-09T00:36:16;92416.88;;;18.40;61.44
61963;BME280;47927;42.646;23.096;2022-09-09T00:39:02;92413.84;;;18.42;61.43
61963;BME280;47927;42.646;23.096;2022-09-09T00:47:03;92418.78;;;17.89;62.86
61963;BME280;47927;42.646;23.096;2022-09-09T00:57:33;92419.06;;;17.68;62.79
61963;BME280;47927;42.646;23.096;2022-09-09T01:05:26;92412.94;;;17.78;62.70
61963;BME280;47927;42.646;23.096;2022-09-09T01:07:52;92411.06;;;17.75;62.49
61963;BME280;47927;42.646;23.096;2022-09-09T01:13:11;92416.13;;;17.62;63.40
61963;BME280;47927;42.646;23.096;2022-09-09T01:15:41;92418.34;;;17.64;63.16
61963;BME280;47927;42.646;23.096;2022-09-09T01:18:12;92419.81;;;17.68;62.99
61963;BME280;47927;42.646;23.096;2022-09-09T01:23:48;92414.72;;;17.54;63.17
61963;BME280;47927;42.646;23.096;2022-09-09T01:26:31;92424.56;;;17.50;63.19
61963;BME280;47927;42.646;23.096;2022-09-09T01:29:08;92411.84;;;17.45;63.28
61963;BME280;47927;42.646;23.096;2022-09-09T01:31:42;92424.75;;;17.36;63.31
61963;BME280;47927;42.646;23.096;2022-09-09T01:34:17;92422.22;;;17.28;63.24
61963;BME280;47927;42.646;23.096;2022-09-09T01:36:56;92419.13;;;17.34;63.71
61963;BME280;47927;42.646;23.096;2022-09-09T01:39:23;92421.38;;;17.35;63.42
61963;BME280;47927;42.646;23.096;2022-09-09T01:41:57;92420.94;;;17.40;62.90
61963;BME280;47927;42.646;23.096;2022-09-09T01:44:24;92415.78;;;17.29;63.37
61963;BME280;47927;42.646;23.096;2022-09-09T01:46:50;92419.53;;;17.32;63.21
61963;BME280;47927;42.646;23.096;2022-09-09T01:49:18;92419.56;;;17.28;63.10
61963;BME280;47927;42.646;23.096;2022-09-09T01:51:47;92418.44;;;17.29;63.23
61963;BME280;47927;42.646;23.096;2022-09-09T01:54:14;92415.47;;;17.24;63.34
61963;BME280;47927;42.646;23.096;2022-09-09T01:56:47;92416.97;;;17.25;63.24
61963;BME280;47927;42.646;23.096;2022-09-09T02:02:33;92419.66;;;16.83;64.13
61963;BME280;47927;42.646;23.096;2022-09-09T02:05:37;92417.69;;;16.95;63.76
61963;BME280;47927;42.646;23.096;2022-09-09T02:11:07;92406.50;;;16.83;64.81
61963;BME280;47927;42.646;23.096;2022-09-09T02:13:40;92404.88;;;16.97;64.05
61963;BME280;47927;42.646;23.096;2022-09-09T02:18:56;92406.63;;;17.07;64.07
61963;BME280;47927;42.646;23.096;2022-09-09T02:21:32;92411.78;;;16.83;65.28
61963;BME280;47927;42.646;23.096;2022-09-09T02:24:05;92407.72;;;16.75;66.27
61963;BME280;47927;42.646;23.096;2022-09-09T02:26:39;92410.94;;;16.94;65.58
61963;BME280;47927;42.646;23.096;2022-09-09T02:29:29;92408.00;;;17.22;64.45
61963;BME280;47927;42.646;23.096;2022-09-09T02:31:59;92416.31;;;17.17;63.95
61963;BME280;47927;42.646;23.096;2022-09-09T02:34:34;92420.59;;;17.04;64.25
61963;BME280;47927;42.646;23.096;2022-09-09T02:37:01;92422.16;;;16.98;65.24
61963;BME280;47927;42.646;23.096;2022-09-09T02:39:28;92420.31;;;16.95;65.22
61963;BME280;47927;42.646;23.096;2022-09-09T02:41:54;92416.88;;;16.98;64.54
61963;BME280;47927;42.646;23.096;2022-09-09T02:44:28;92421.34;;;17.04;63.76
61963;BME280;47927;42.646;23.096;2022-09-09T02:47:19;92418.69;;;17.08;63.44
61963;BME280;47927;42.646;23.096;2022-09-09T02:52:41;92419.84;;;16.62;65.64
61963;BME280;47927;42.646;23.096;2022-09-09T02:55:17;92415.81;;;16.54;66.47
61963;BME280;47927;42.646;23.096;2022-09-09T02:57:47;92413.31;;;16.81;65.04
61963;BME280;47927;42.646;23.096;2022-09-09T03:00:14;92418.13;;;16.86;63.84
61963;BME280;47927;42.646;23.096;2022-09-09T03:02:41;92417.03;;;16.83;64.17
61963;BME280;47927;42.646;23.096;2022-09-09T03:05:07;92432.88;;;16.80;64.00
61963;BME280;47927;42.646;23.096;2022-09-09T03:07:33;92428.81;;;16.72;64.87
61963;BME280;47927;42.646;23.096;2022-09-09T03:09:59;92428.19;;;16.57;65.43
61963;BME280;47927;42.646;23.096;2022-09-09T03:12:26;92430.38;;;16.62;65.40
61963;BME280;47927;42.646;23.096;2022-09-09T03:14:52;92430.38;;;16.62;65.69
61963;BME280;47927;42.646;23.096;2022-09-09T03:17:17;92422.34;;;16.80;64.88
61963;BME280;47927;42.646;23.096;2022-09-09T03:19:49;92415.97;;;16.81;64.32
61963;BME280;47927;42.646;23.096;2022-09-09T03:22:18;92412.25;;;16.71;64.15
61963;BME280;47927;42.646;23.096;2022-09-09T03:24:44;92420.25;;;16.60;64.36
61963;BME280;47927;42.646;23.096;2022-09-09T03:27:12;92421.72;;;16.20;66.58
61963;BME280;47927;42.646;23.096;2022-09-09T03:29:39;92428.91;;;16.16;67.39
61963;BME280;47927;42.646;23.096;2022-09-09T03:32:08;92419.56;;;16.53;66.53
61963;BME280;47927;42.646;23.096;2022-09-09T03:34:36;92425.75;;;16.77;65.42
61963;BME280;47927;42.646;23.096;2022-09-09T03:37:05;92426.63;;;16.63;65.49
61963;BME280;47927;42.646;23.096;2022-09-09T03:39:31;92420.91;;;16.68;65.30
61963;BME280;47927;42.646;23.096;2022-09-09T03:41:58;92428.03;;;16.71;65.19
61963;BME280;47927;42.646;23.096;2022-09-09T03:44:23;92425.66;;;16.88;64.48
61963;BME280;47927;42.646;23.096;2022-09-09T03:46:49;92426.31;;;16.95;63.91
61963;BME280;47927;42.646;23.096;2022-09-09T03:49:14;92417.31;;;16.96;64.04
61963;BME280;47927;42.646;23.096;2022-09-09T03:51:41;92418.03;;;16.97;63.92
61963;BME280;47927;42.646;23.096;2022-09-09T03:54:09;92415.84;;;16.92;64.60
61963;BME280;47927;42.646;23.096;2022-09-09T03:56:36;92417.25;;;17.00;64.30
61963;BME280;47927;42.646;23.096;2022-09-09T03:59:03;92422.44;;;17.07;64.16
61963;BME280;47927;42.646;23.096;2022-09-09T04:01:29;92424.25;;;17.14;64.14
61963;BME280;47927;42.646;23.096;2022-09-09T04:03:54;92420.16;;;17.09;64.01
61963;BME280;47927;42.646;23.096;2022-09-09T04:06:23;92423.59;;;16.64;65.70
61963;BME280;47927;42.646;23.096;2022-09-09T04:08:49;92420.34;;;16.91;64.75
61963;BME280;47927;42.646;23.096;2022-09-09T04:11:16;92420.78;;;16.86;64.99
61963;BME280;47927;42.646;23.096;2022-09-09T04:13:43;92418.13;;;16.90;65.57
61963;BME280;47927;42.646;23.096;2022-09-09T04:16:12;92417.78;;;17.18;64.40
61963;BME280;47927;42.646;23.096;2022-09-09T04:18:42;92422.31;;;17.18;63.77
61963;BME280;47927;42.646;23.096;2022-09-09T04:21:09;92418.06;;;17.27;64.16
61963;BME280;47927;42.646;23.096;2022-09-09T04:23:35;92417.59;;;17.36;63.22
61963;BME280;47927;42.646;23.096;2022-09-09T04:26:02;92425.09;;;17.95;62.51
61963;BME280;47927;42.646;23.096;2022-09-09T04:28:30;92421.34;;;19.10;59.88
61963;BME280;47927;42.646;23.096;2022-09-09T04:31:03;92420.50;;;19.53;58.74
61963;BME280;47927;42.646;23.096;2022-09-09T04:33:29;92422.91;;;19.28;58.84
61963;BME280;47927;42.646;23.096;2022-09-09T04:35:56;92421.13;;;19.81;58.05
61963;BME280;47927;42.646;23.096;2022-09-09T04:38:24;92425.59;;;20.82;55.44
61963;BME280;47927;42.646;23.096;2022-09-09T04:40:51;92426.16;;;21.99;53.29
61963;BME280;47927;42.646;23.096;2022-09-09T04:43:20;92433.09;;;23.17;51.32
61963;BME280;47927;42.646;23.096;2022-09-09T04:45:48;92417.03;;;24.05;48.64
61963;BME280;47927;42.646;23.096;2022-09-09T04:48:14;92419.47;;;25.17;45.99
61963;BME280;47927;42.646;23.096;2022-09-09T04:50:40;92410.16;;;25.92;44.52
61963;BME280;47927;42.646;23.096;2022-09-09T04:53:08;92419.91;;;26.86;42.92
61963;BME280;47927;42.646;23.096;2022-09-09T04:55:36;92426.72;;;27.49;42.39
61963;BME280;47927;42.646;23.096;2022-09-09T04:58:07;92418.72;;;28.29;39.80
61963;BME280;47927;42.646;23.096;2022-09-09T05:00:35;92406.19;;;28.76;39.73
61963;BME280;47927;42.646;23.096;2022-09-09T05:03:06;92408.66;;;29.21;37.23
61963;BME280;47927;42.646;23.096;2022-09-09T05:05:34;92408.53;;;29.30;38.38
61963;BME280;47927;42.646;23.096;2022-09-09T05:08:04;92405.75;;;30.03;36.25
61963;BME280;47927;42.646;23.096;2022-09-09T05:10:30;92407.22;;;30.35;35.69
61963;BME280;47927;42.646;23.096;2022-09-09T05:12:57;92414.19;;;30.59;32.60
61963;BME280;47927;42.646;23.096;2022-09-09T05:15:25;92396.22;;;30.87;34.87
61963;BME280;47927;42.646;23.096;2022-09-09T05:17:51;92389.88;;;30.79;34.90
61963;BME280;47927;42.646;23.096;2022-09-09T05:20:19;92398.69;;;31.90;32.84
61963;BME280;47927;42.646;23.096;2022-09-09T05:22:45;92399.75;;;32.85;32.18
61963;BME280;47927;42.646;23.096;2022-09-09T05:25:10;92405.94;;;34.10;29.49
61963;BME280;47927;42.646;23.096;2022-09-09T05:27:36;92403.16;;;35.32;26.85
61963;BME280;47927;42.646;23.096;2022-09-09T05:30:03;92405.81;;;36.21;26.25
61963;BME280;47927;42.646;23.096;2022-09-09T05:32:30;92401.47;;;36.45;23.87
61963;BME280;47927;42.646;23.096;2022-09-09T05:34:58;92397.81;;;37.70;22.62
61963;BME280;47927;42.646;23.096;2022-09-09T05:37:24;92409.41;;;38.33;23.40
61963;BME280;47927;42.646;23.096;2022-09-09T05:39:49;92410.13;;;38.83;21.46
61963;BME280;47927;42.646;23.096;2022-09-09T05:42:16;92408.56;;;38.67;20.26
61963;BME280;47927;42.646;23.096;2022-09-09T05:44:43;92414.41;;;38.71;20.62
61963;BME280;47927;42.646;23.096;2022-09-09T05:47:10;92417.91;;;38.50;21.04
61963;BME280;47927;42.646;23.096;2022-09-09T05:49:37;92421.22;;;39.22;21.06
61963;BME280;47927;42.646;23.096;2022-09-09T05:52:02;92416.31;;;38.34;20.80
61963;BME280;47927;42.646;23.096;2022-09-09T05:54:29;92414.28;;;38.77;21.91
61963;BME280;47927;42.646;23.096;2022-09-09T05:56:55;92426.00;;;38.92;19.90
61963;BME280;47927;42.646;23.096;2022-09-09T05:59:21;92425.03;;;39.18;20.79
61963;BME280;47927;42.646;23.096;2022-09-09T06:01:50;92424.00;;;39.81;19.42
61963;BME280;47927;42.646;23.096;2022-09-09T06:04:30;92428.53;;;39.86;20.36
61963;BME280;47927;42.646;23.096;2022-09-09T06:06:58;92432.75;;;39.95;18.89
61963;BME280;47927;42.646;23.096;2022-09-09T06:09:24;92436.75;;;40.09;19.48
61963;BME280;47927;42.646;23.096;2022-09-09T06:11:49;92443.50;;;40.16;18.69
61963;BME280;47927;42.646;23.096;2022-09-09T06:14:15;92432.56;;;40.92;18.80
61963;BME280;47927;42.646;23.096;2022-09-09T06:16:45;92432.41;;;40.75;17.79
61963;BME280;47927;42.646;23.096;2022-09-09T06:19:17;92432.94;;;40.81;18.56
61963;BME280;47927;42.646;23.096;2022-09-09T06:21:43;92431.66;;;40.97;17.67
61963;BME280;47927;42.646;23.096;2022-09-09T06:24:10;92432.22;;;41.84;16.65
61963;BME280;47927;42.646;23.096;2022-09-09T06:26:39;92430.28;;;42.10;16.32
61963;BME280;47927;42.646;23.096;2022-09-09T06:29:10;92421.44;;;43.04;16.18
61963;BME280;47927;42.646;23.096;2022-09-09T06:31:37;92420.34;;;43.52;15.38
61963;BME280;47927;42.646;23.096;2022-09-09T06:34:08;92414.41;;;41.35;16.34
61963;BME280;47927;42.646;23.096;2022-09-09T06:36:38;92428.38;;;39.92;18.32
61963;BME280;47927;42.646;23.096;2022-09-09T06:39:05;92416.63;;;40.20;17.65
61963;BME280;47927;42.646;23.096;2022-09-09T06:41:32;92422.13;;;41.14;16.75
61963;BME280;47927;42.646;23.096;2022-09-09T06:43:59;92428.25;;;42.36;16.50
61963;BME280;47927;42.646;23.096;2022-09-09T06:46:40;92425.53;;;40.20;17.87
61963;BME280;47927;42.646;23.096;2022-09-09T06:49:08;92430.63;;;40.31;17.87
61963;BME280;47927;42.646;23.096;2022-09-09T06:51:36;92438.81;;;41.41;17.27
61963;BME280;47927;42.646;23.096;2022-09-09T06:54:04;92447.66;;;41.64;16.23
61963;BME280;47927;42.646;23.096;2022-09-09T06:56:40;92448.75;;;42.77;15.46
61963;BME280;47927;42.646;23.096;2022-09-09T06:59:12;92437.88;;;43.04;15.17
61963;BME280;47927;42.646;23.096;2022-09-09T07:01:40;92450.94;;;42.28;15.57
61963;BME280;47927;42.646;23.096;2022-09-09T07:04:11;92444.50;;;42.59;15.60
61963;BME280;47927;42.646;23.096;2022-09-09T07:06:44;92445.28;;;42.01;16.28
61963;BME280;47927;42.646;23.096;2022-09-09T07:09:15;92438.25;;;40.79;16.93
61963;BME280;47927;42.646;23.096;2022-09-09T07:11:46;92443.13;;;40.04;17.93
61963;BME280;47927;42.646;23.096;2022-09-09T07:14:13;92437.50;;;39.42;18.42
61963;BME280;47927;42.646;23.096;2022-09-09T07:16:42;92439.00;;;40.64;17.51
61963;BME280;47927;42.646;23.096;2022-09-09T07:19:09;92433.53;;;40.64;17.66
61963;BME280;47927;42.646;23.096;2022-09-09T07:21:34;92434.16;;;41.18;17.62
61963;BME280;47927;42.646;23.096;2022-09-09T07:24:00;92439.66;;;40.95;17.43
61963;BME280;47927;42.646;23.096;2022-09-09T07:26:29;92435.84;;;41.06;17.22
61963;BME280;47927;42.646;23.096;2022-09-09T07:28:57;92429.63;;;41.61;17.36
61963;BME280;47927;42.646;23.096;2022-09-09T07:31:32;92436.19;;;40.95;16.55
61963;BME280;47927;42.646;23.096;2022-09-09T07:33:58;92434.44;;;40.28;18.03
61963;BME280;47927;42.646;23.096;2022-09-09T07:36:30;92443.31;;;39.47;18.20
61963;BME280;47927;42.646;23.096;2022-09-09T07:38:57;92440.22;;;40.94;18.17
61963;BME280;47927;42.646;23.096;2022-09-09T07:41:37;92432.03;;;40.17;18.27
61963;BME280;47927;42.646;23.096;2022-09-09T07:44:12;92440.44;;;40.35;18.32
61963;BME280;47927;42.646;23.096;2022-09-09T07:46:39;92434.63;;;40.61;17.64
61963;BME280;47927;42.646;23.096;2022-09-09T07:49:07;92440.38;;;40.96;17.17
61963;BME280;47927;42.646;23.096;2022-09-09T07:51:37;92453.69;;;38.83;19.11
61963;BME280;47927;42.646;23.096;2022-09-09T07:54:06;92437.38;;;37.57;20.58
61963;BME280;47927;42.646;23.096;2022-09-09T07:56:33;92439.59;;;36.79;21.94
61963;BME280;47927;42.646;23.096;2022-09-09T07:58:59;92432.47;;;36.04;22.71
61963;BME280;47927;42.646;23.096;2022-09-09T08:01:31;92436.56;;;35.59;22.82
61963;BME280;47927;42.646;23.096;2022-09-09T08:04:04;92438.38;;;35.32;24.44
61963;BME280;47927;42.646;23.096;2022-09-09T08:06:34;92435.50;;;36.46;23.16
61963;BME280;47927;42.646;23.096;2022-09-09T08:09:00;92438.97;;;36.60;22.85
61963;BME280;47927;42.646;23.096;2022-09-09T08:11:28;92434.38;;;36.55;22.85
61963;BME280;47927;42.646;23.096;2022-09-09T08:13:55;92436.47;;;36.62;21.83
61963;BME280;47927;42.646;23.096;2022-09-09T08:16:23;92433.91;;;35.73;24.25
61963;BME280;47927;42.646;23.096;2022-09-09T08:18:50;92439.22;;;36.30;23.34
61963;BME280;47927;42.646;23.096;2022-09-09T08:21:20;92435.25;;;36.44;22.03
61963;BME280;47927;42.646;23.096;2022-09-09T08:23:47;92440.50;;;35.21;24.27
61963;BME280;47927;42.646;23.096;2022-09-09T08:26:18;92442.84;;;34.32;25.91
61963;BME280;47927;42.646;23.096;2022-09-09T08:28:52;92436.16;;;34.68;24.88
61963;BME280;47927;42.646;23.096;2022-09-09T08:31:19;92428.63;;;32.96;27.29
61963;BME280;47927;42.646;23.096;2022-09-09T08:33:45;92436.13;;;32.39;28.41
61963;BME280;47927;42.646;23.096;2022-09-09T08:36:13;92430.19;;;32.68;28.92
61963;BME280;47927;42.646;23.096;2022-09-09T08:38:41;92426.03;;;32.67;28.44
61963;BME280;47927;42.646;23.096;2022-09-09T08:58:09;92428.50;;;33.35;27.75
61963;BME280;47927;42.646;23.096;2022-09-09T09:00:56;92434.25;;;33.09;28.92
61963;BME280;47927;42.646;23.096;2022-09-09T09:12:23;92426.53;;;30.39;32.47
61963;BME280;47927;42.646;23.096;2022-09-09T09:14:50;92425.41;;;31.06;30.79
61963;BME280;47927;42.646;23.096;2022-09-09T09:17:18;92429.25;;;32.38;29.41
61963;BME280;47927;42.646;23.096;2022-09-09T09:19:47;92427.09;;;32.03;29.19
61963;BME280;47927;42.646;23.096;2022-09-09T09:22:20;92426.84;;;32.17;29.67
61963;BME280;47927;42.646;23.096;2022-09-09T09:25:22;92427.22;;;30.77;31.44
61963;BME280;47927;42.646;23.096;2022-09-09T09:30:42;92430.00;;;29.30;34.03
61963;BME280;47927;42.646;23.096;2022-09-09T09:33:14;92422.22;;;29.12;35.54
61963;BME280;47927;42.646;23.096;2022-09-09T09:35:43;92420.06;;;28.95;35.32
61963;BME280;47927;42.646;23.096;2022-09-09T09:40:56;92418.03;;;29.31;35.76
61963;BME280;47927;42.646;23.096;2022-09-09T09:45:56;92421.63;;;29.74;33.81
61963;BME280;47927;42.646;23.096;2022-09-09T09:48:27;92414.38;;;29.55;34.69
61963;BME280;47927;42.646;23.096;2022-09-09T09:50:54;92419.78;;;29.34;35.29
61963;BME280;47927;42.646;23.096;2022-09-09T09:53:26;92426.97;;;28.81;35.91
61963;BME280;47927;42.646;23.096;2022-09-09T09:56:02;92422.69;;;28.90;35.37
61963;BME280;47927;42.646;23.096;2022-09-09T09:58:31;92418.69;;;28.79;35.62
61963;BME280;47927;42.646;23.096;2022-09-09T10:01:00;92422.69;;;28.90;35.75
61963;BME280;47927;42.646;23.096;2022-09-09T10:03:30;92425.53;;;29.27;35.09
61963;BME280;47927;42.646;23.096;2022-09-09T10:06:14;92427.72;;;29.23;35.79
61963;BME280;47927;42.646;23.096;2022-09-09T10:08:46;92428.13;;;28.95;35.68
61963;BME280;47927;42.646;23.096;2022-09-09T10:19:57;92426.81;;;27.70;38.82
61963;BME280;47927;42.646;23.096;2022-09-09T10:22:00;92425.28;;;28.28;37.71
61963;BME280;47927;42.646;23.096;2022-09-09T10:24:53;92431.59;;;27.95;38.00
61963;BME280;47927;42.646;23.096;2022-09-09T10:30:37;92442.03;;;28.08;38.09
61963;BME280;47927;42.646;23.096;2022-09-09T10:33:31;92444.16;;;27.89;38.67
61963;BME280;47927;42.646;23.096;2022-09-09T10:36:07;92447.84;;;27.77;39.50
61963;BME280;47927;42.646;23.096;2022-09-09T10:38:45;92445.28;;;27.98;39.04
61963;BME280;47927;42.646;23.096;2022-09-09T10:41:37;92447.50;;;28.14;38.91
61963;BME280;47927;42.646;23.096;2022-09-09T10:52:07;92442.66;;;28.68;39.06
61963;BME280;47927;42.646;23.096;2022-09-09T10:57:16;92451.44;;;28.89;39.04
61963;BME280;47927;42.646;23.096;2022-09-09T10:59:46;92452.47;;;28.92;38.49
61963;BME280;47927;42.646;23.096;2022-09-09T11:02:30;92457.44;;;29.19;38.46
61963;BME280;47927;42.646;23.096;2022-09-09T11:05:19;92444.22;;;29.36;37.54
61963;BME280;47927;42.646;23.096;2022-09-09T11:07:55;92453.19;;;29.33;37.09
61963;BME280;47927;42.646;23.096;2022-09-09T11:10:34;92452.00;;;29.14;38.58
61963;BME280;47927;42.646;23.096;2022-09-09T11:13:10;92447.56;;;29.78;36.63
61963;BME280;47927;42.646;23.096;2022-09-09T11:15:53;92441.81;;;29.64;35.99
61963;BME280;47927;42.646;23.096;2022-09-09T11:18:22;92435.09;;;29.28;36.49
61963;BME280;47927;42.646;23.096;2022-09-09T11:20:53;92434.22;;;28.75;37.90
61963;BME280;47927;42.646;23.096;2022-09-09T11:23:27;92428.28;;;29.06;38.80
61963;BME280;47927;42.646;23.096;2022-09-09T11:26:00;92415.16;;;28.94;39.35
61963;BME280;47927;42.646;23.096;2022-09-09T11:34:19;92391.72;;;29.09;41.61
61963;BME280;47927;42.646;23.096;2022-09-09T11:37:08;92369.66;;;28.79;43.45
61963;BME280;47927;42.646;23.096;2022-09-09T11:39:48;92363.19;;;28.85;40.55
61963;BME280;47927;42.646;23.096;2022-09-09T11:42:23;92373.75;;;28.95;41.30
61963;BME280;47927;42.646;23.096;2022-09-09T11:44:50;92374.88;;;28.88;40.08
61963;BME280;47927;42.646;23.096;2022-09-09T11:49:47;92392.03;;;28.76;39.36
61963;BME280;47927;42.646;23.096;2022-09-09T11:55:12;92380.38;;;28.79;39.80
61963;BME280;47927;42.646;23.096;2022-09-09T11:58:00;92371.13;;;29.00;38.91
61963;BME280;47927;42.646;23.096;2022-09-09T12:00:36;92372.75;;;28.92;38.38
61963;BME280;47927;42.646;23.096;2022-09-09T12:03:04;92358.53;;;28.86;40.12
61963;BME280;47927;42.646;23.096;2022-09-09T12:05:44;92358.91;;;28.17;40.20
61963;BME280;47927;42.646;23.096;2022-09-09T12:08:17;92367.81;;;28.29;40.64
61963;BME280;47927;42.646;23.096;2022-09-09T12:10:58;92359.00;;;27.58;42.04
61963;BME280;47927;42.646;23.096;2022-09-09T12:13:26;92357.59;;;27.63;41.42
61963;BME280;47927;42.646;23.096;2022-09-09T12:15:57;92343.19;;;27.60;41.47
61963;BME280;47927;42.646;23.096;2022-09-09T12:18:33;92356.31;;;27.88;40.83
61963;BME280;47927;42.646;23.096;2022-09-09T12:21:12;92352.34;;;28.18;39.53
61963;BME280;47927;42.646;23.096;2022-09-09T12:23:58;92350.91;;;28.03;40.63
61963;BME280;47927;42.646;23.096;2022-09-09T12:26:54;92355.28;;;28.21;40.21
61963;BME280;47927;42.646;23.096;2022-09-09T12:32:39;92344.69;;;27.61;40.92
61963;BME280;47927;42.646;23.096;2022-09-09T12:35:25;92345.81;;;27.55;41.92
61963;BME280;47927;42.646;23.096;2022-09-09T12:37:58;92346.16;;;27.18;41.72
61963;BME280;47927;42.646;23.096;2022-09-09T12:40:26;92352.06;;;26.68;43.17
61963;BME280;47927;42.646;23.096;2022-09-09T12:42:52;92342.06;;;26.93;44.12
61963;BME280;47927;42.646;23.096;2022-09-09T12:45:21;92332.97;;;27.44;43.51
61963;BME280;47927;42.646;23.096;2022-09-09T12:50:25;92330.69;;;26.98;46.05
61963;BME280;47927;42.646;23.096;2022-09-09T12:52:54;92334.31;;;27.10;44.67
61963;BME280;47927;42.646;23.096;2022-09-09T12:55:27;92327.97;;;27.07;44.11
61963;BME280;47927;42.646;23.096;2022-09-09T12:57:56;92322.22;;;26.85;44.12
61963;BME280;47927;42.646;23.096;2022-09-09T13:00:24;92332.84;;;26.94;44.15
61963;BME280;47927;42.646;23.096;2022-09-09T13:02:54;92318.75;;;27.08;43.41
61963;BME280;47927;42.646;23.096;2022-09-09T13:05:22;92316.47;;;27.16;42.45
61963;BME280;47927;42.646;23.096;2022-09-09T13:07:49;92313.03;;;27.15;41.60
61963;BME280;47927;42.646;23.096;2022-09-09T13:10:21;92312.22;;;27.39;41.08
61963;BME280;47927;42.646;23.096;2022-09-09T13:12:48;92312.03;;;27.27;41.70
61963;BME280;47927;42.646;23.096;2022-09-09T13:15:20;92312.56;;;27.02;43.17
61963;BME280;47927;42.646;23.096;2022-09-09T13:18:07;92311.69;;;27.35;43.03
61963;BME280;47927;42.646;23.096;2022-09-09T13:20:38;92306.56;;;26.92;42.64
61963;BME280;47927;42.646;23.096;2022-09-09T13:23:03;92307.25;;;26.63;44.03
61963;BME280;47927;42.646;23.096;2022-09-09T13:25:29;92299.81;;;26.43;44.27
61963;BME280;47927;42.646;23.096;2022-09-09T13:28:05;92304.31;;;26.61;45.59
61963;BME280;47927;42.646;23.096;2022-09-09T13:30:56;92276.16;;;26.90;46.25
61963;BME280;47927;42.646;23.096;2022-09-09T13:33:38;92294.78;;;26.99;45.44
61963;BME280;47927;42.646;23.096;2022-09-09T13:36:07;92290.50;;;26.39;46.04
61963;BME280;47927;42.646;23.096;2022-09-09T13:38:37;92284.38;;;25.66;48.11
61963;BME280;47927;42.646;23.096;2022-09-09T13:41:05;92282.91;;;25.65;47.92
61963;BME280;47927;42.646;23.096;2022-09-09T13:43:52;92280.91;;;26.08;45.74
61963;BME280;47927;42.646;23.096;2022-09-09T13:46:39;92278.75;;;26.21;45.44
61963;BME280;47927;42.646;23.096;2022-09-09T13:51:41;92288.47;;;26.33;44.97
61963;BME280;47927;42.646;23.096;2022-09-09T13:54:12;92286.91;;;26.66;43.77
61963;BME280;47927;42.646;23.096;2022-09-09T13:56:39;92274.47;;;26.63;43.28
61963;BME280;47927;42.646;23.096;2022-09-09T13:59:09;92282.63;;;26.59;43.23
61963;BME280;47927;42.646;23.096;2022-09-09T14:01:36;92280.63;;;26.06;44.53
61963;BME280;47927;42.646;23.096;2022-09-09T14:04:03;92278.00;;;25.63;45.57
61963;BME280;47927;42.646;23.096;2022-09-09T14:06:29;92282.31;;;25.61;46.23
61963;BME280;47927;42.646;23.096;2022-09-09T14:08:55;92270.97;;;26.08;44.97
61963;BME280;47927;42.646;23.096;2022-09-09T14:11:21;92265.19;;;25.86;45.27
61963;BME280;47927;42.646;23.096;2022-09-09T14:13:50;92255.25;;;25.77;45.65
61963;BME280;47927;42.646;23.096;2022-09-09T14:16:18;92266.38;;;26.09;45.12
61963;BME280;47927;42.646;23.096;2022-09-09T14:18:45;92254.94;;;26.08;45.88
61963;BME280;47927;42.646;23.096;2022-09-09T14:21:11;92259.53;;;26.08;45.36
61963;BME280;47927;42.646;23.096;2022-09-09T14:23:37;92252.47;;;25.72;46.39
61963;BME280;47927;42.646;23.096;2022-09-09T14:26:05;92270.97;;;25.84;45.90
61963;BME280;47927;42.646;23.096;2022-09-09T14:28:31;92265.84;;;25.96;45.45
61963;BME280;47927;42.646;23.096;2022-09-09T14:31:00;92262.75;;;25.97;45.45
61963;BME280;47927;42.646;23.096;2022-09-09T14:33:26;92260.28;;;25.84;46.52
61963;BME280;47927;42.646;23.096;2022-09-09T14:36:02;92251.16;;;26.00;46.35
61963;BME280;47927;42.646;23.096;2022-09-09T14:38:29;92252.44;;;26.05;45.48
61963;BME280;47927;42.646;23.096;2022-09-09T14:40:55;92247.19;;;26.34;45.53
61963;BME280;47927;42.646;23.096;2022-09-09T14:43:22;92242.78;;;26.46;44.85
61963;BME280;47927;42.646;23.096;2022-09-09T14:45:47;92249.97;;;26.01;46.08
61963;BME280;47927;42.646;23.096;2022-09-09T14:48:17;92249.47;;;25.88;46.32
61963;BME280;47927;42.646;23.096;2022-09-09T14:50:42;92254.47;;;25.62;46.73
61963;BME280;47927;42.646;23.096;2022-09-09T14:53:09;92255.44;;;25.74;46.87
61963;BME280;47927;42.646;23.096;2022-09-09T14:55:35;92261.56;;;26.61;45.16
61963;BME280;47927;42.646;23.096;2022-09-09T14:58:01;92261.00;;;26.57;45.48
61963;BME280;47927;42.646;23.096;2022-09-09T15:00:26;92267.38;;;26.11;46.55
61963;BME280;47927;42.646;23.096;2022-09-09T15:02:55;92261.47;;;26.70;44.14
61963;BME280;47927;42.646;23.096;2022-09-09T15:05:21;92269.47;;;26.70;43.35
61963;BME280;47927;42.646;23.096;2022-09-09T15:07:47;92269.06;;;26.87;43.24
61963;BME280;47927;42.646;23.096;2022-09-09T15:10:13;92259.38;;;27.04;42.34
61963;BME280;47927;42.646;23.096;2022-09-09T15:12:39;92251.16;;;27.08;41.98